Aeroporto :
LOGIN :

Iscrizione | Disclaimer

   EN    FR    IT 

 










Sommario :    VFR   VFR Marginale   IFR   IFR Intensivo   IFR Molto Intensivo
Visibilità : 
Base nubi : 
>= 8 km
>= 3000ft
5 / 8 km
1000 / 3000 ft
1500m / 5 km
500 / 1000 ft
800 / 1500m
200 / 500 ft
< 800m
< 200 ft
Simboli :   Temporali  Nebbia  Neve Forte  Precipitazioni Forti  Vento > 20 kt
SIGMETs :   Varie  Temporali  Ghiacco  Turbolenza  Onda orograficha  Ceneri Vulcaniche






- Altitudine del aeroporto : 463 ft
- Codice IATA : SZY
- AEROPORTO CHIUSO.


EPSY - Szczytno

ULTIMO METAR :
  • 261730Z 09009KT 060V130 9999 -SHRA BKN035CB 18/16 Q0998

METARs OBSOLETI :
  • 261700Z 11012KT 070V150 9999 BKN036CB 20/16 Q0998
  • 261630Z 12005KT 090V150 9999 FEW035 22/15 Q0997
  • 261600Z 11006KT 9999 SCT039 22/15 Q0997
  • 261530Z 13009KT 090V170 9999 SCT030CB 22/15 Q0996
  • 261500Z 14012G23KT 100V170 9999 SCT035CB 23/15 Q0996

TAF TAF EPSY
Valido dal 26 a 18 ore il 27 a 03 ore UTC


261730Z 2618/2703 10008KT CAVOK
PROB40
TEMPO 2618/2703 10015G25KT 5000 -SHRA SCT015 BKN030CB



MetMap, La meteo Aeronautica in un colpo d'occhio ! - Copyright ORBIFLY Dicembre 2007 - Disclaimer

ORBIFLY MET'MAP TEAM :

Programmazione e sviluppo : Alexandra Zaïnal
Concezione : Baudouin d'Aumeries
Aiuto per la programmazione : Marc-Olivier Méhu
Supporto tecnico e logistico : Manuel Goepfert
Aiuto per la traduzione : Arnaldo La Scala

Contatto : metmap@orbifly.com




FONTI E CREDITI :

   NOAA